Time,TemperatureF,DewpointF,PressureIn,WindDirection,WindDirectionDegrees,WindSpeedMPH,WindSpeedGustMPH,Humidity,HourlyPrecipIn,Conditions,Clouds,dailyrainin,SoftwareType,DateUTC
2013-02-12 00:01:00,26.0,22.4,30.19,WSW,257,0.0,0.0,86,0.00,,CLR,0.00,VWS V14.01,2013-02-12 06:01:00,
2013-02-12 00:06:00,26.0,22.4,30.19,WSW,257,0.0,0.0,86,0.00,,CLR,0.00,VWS V14.01,2013-02-12 06:06:00,
2013-02-12 00:11:00,26.0,22.4,30.19,WSW,257,1.0,1.0,86,0.00,,CLR,0.00,VWS V14.01,2013-02-12 06:11:00,
2013-02-12 00:16:00,26.0,22.4,30.19,WSW,257,1.0,1.0,86,0.00,,CLR,0.00,VWS V14.01,2013-02-12 06:16:00,
2013-02-12 00:21:00,25.8,22.2,30.19,WSW,257,0.0,2.0,86,0.00,,CLR,0.00,VWS V14.01,2013-02-12 06:21:00,
2013-02-12 00:26:00,25.8,22.5,30.19,WSW,257,0.0,0.0,87,0.00,,CLR,0.00,VWS V14.01,2013-02-12 06:26:00,
2013-02-12 00:31:00,25.8,22.5,30.19,WSW,257,0.0,0.0,87,0.00,,CLR,0.00,VWS V14.01,2013-02-12 06:31:00,
2013-02-12 00:36:00,25.8,22.5,30.19,WSW,257,0.0,0.0,87,0.00,,CLR,0.00,VWS V14.01,2013-02-12 06:36:00,
2013-02-12 00:41:00,25.9,22.6,30.19,WSW,257,0.0,0.0,87,0.00,,CLR,0.00,VWS V14.01,2013-02-12 06:41:00,
2013-02-12 00:46:00,26.0,22.7,30.18,WSW,257,0.0,0.0,87,0.00,,CLR,0.00,VWS V14.01,2013-02-12 06:46:00,
2013-02-12 00:51:00,26.0,22.4,30.19,WSW,257,0.0,1.0,86,0.00,,CLR,0.00,VWS V14.01,2013-02-12 06:51:00,
2013-02-12 00:56:00,25.9,22.3,30.19,WSW,257,0.0,0.0,86,0.00,,CLR,0.00,VWS V14.01,2013-02-12 06:56:00,
2013-02-12 01:01:00,25.8,22.2,30.19,WSW,257,0.0,0.0,86,0.00,,CLR,0.00,VWS V14.01,2013-02-12 07:01:00,
2013-02-12 01:06:00,25.8,22.5,30.19,WSW,257,0.0,0.0,87,0.00,,CLR,0.00,VWS V14.01,2013-02-12 07:06:00,
2013-02-12 01:11:00,25.7,22.4,30.19,WSW,257,0.0,0.0,87,0.00,,CLR,0.00,VWS V14.01,2013-02-12 07:11:00,
2013-02-12 01:16:00,25.5,22.2,30.19,WSW,257,0.0,0.0,87,0.00,,CLR,0.00,VWS V14.01,2013-02-12 07:16:00,
2013-02-12 01:21:00,25.4,22.1,30.19,WSW,257,0.0,0.0,87,0.00,,CLR,0.00,VWS V14.01,2013-02-12 07:21:00,
2013-02-12 01:26:00,25.4,22.1,30.19,WSW,257,0.0,0.0,87,0.00,,CLR,0.00,VWS V14.01,2013-02-12 07:26:00,
2013-02-12 01:31:00,25.4,22.1,30.18,WSW,257,0.0,0.0,87,0.00,,CLR,0.00,VWS V14.01,2013-02-12 07:31:00,
2013-02-12 01:36:00,25.1,21.8,30.19,WSW,257,2.0,2.0,87,0.00,,CLR,0.00,VWS V14.01,2013-02-12 07:36:00,
2013-02-12 01:41:00,24.9,21.6,30.19,WSW,257,0.0,1.0,87,0.00,,CLR,0.00,VWS V14.01,2013-02-12 07:41:00,
2013-02-12 01:46:00,24.9,21.9,30.19,WSW,257,2.0,2.0,88,0.00,,CLR,0.00,VWS V14.01,2013-02-12 07:46:00,
2013-02-12 01:51:00,24.9,21.9,30.18,WSW,257,1.0,2.0,88,0.00,,CLR,0.00,VWS V14.01,2013-02-12 07:51:00,
2013-02-12 01:56:00,25.1,22.0,30.18,WSW,257,0.0,1.0,88,0.00,,CLR,0.00,VWS V14.01,2013-02-12 07:56:00,
2013-02-12 02:01:00,25.1,21.8,30.18,WSW,257,0.0,0.0,87,0.00,,CLR,0.00,VWS V14.01,2013-02-12 08:01:00,
2013-02-12 02:06:00,25.0,21.7,30.18,WSW,257,1.0,2.0,87,0.00,,CLR,0.00,VWS V14.01,2013-02-12 08:06:00,
2013-02-12 02:11:00,24.9,21.6,30.18,WSW,257,0.0,0.0,87,0.00,,CLR,0.00,VWS V14.01,2013-02-12 08:11:00,
2013-02-12 02:16:00,25.0,22.0,30.18,WSW,257,0.0,0.0,88,0.00,,CLR,0.00,VWS V14.01,2013-02-12 08:16:00,
2013-02-12 02:21:00,24.9,21.6,30.18,WSW,257,2.0,2.0,87,0.00,,CLR,0.00,VWS V14.01,2013-02-12 08:21:00,
2013-02-12 02:26:00,24.8,21.5,30.18,WSW,257,1.0,2.0,87,0.00,,CLR,0.00,VWS V14.01,2013-02-12 08:26:00,
2013-02-12 02:31:00,24.8,21.8,30.18,WSW,257,0.0,0.0,88,0.00,,CLR,0.00,VWS V14.01,2013-02-12 08:31:00,
2013-02-12 02:36:00,24.9,21.9,30.18,WSW,257,2.0,2.0,88,0.00,,CLR,0.00,VWS V14.01,2013-02-12 08:36:00,
2013-02-12 02:41:00,24.8,21.5,30.18,WSW,257,0.0,0.0,87,0.00,,CLR,0.00,VWS V14.01,2013-02-12 08:41:00,
2013-02-12 02:46:00,24.7,21.4,30.18,WSW,257,0.0,0.0,87,0.00,,CLR,0.00,VWS V14.01,2013-02-12 08:46:00,
2013-02-12 02:51:00,24.7,21.7,30.17,WSW,257,1.0,1.0,88,0.00,,CLR,0.00,VWS V14.01,2013-02-12 08:51:00,
2013-02-12 02:56:00,24.5,21.5,30.16,WSW,257,0.0,0.0,88,0.00,,CLR,0.00,VWS V14.01,2013-02-12 08:56:00,
2013-02-12 03:01:00,24.4,21.4,30.16,WSW,257,0.0,0.0,88,0.00,,CLR,0.00,VWS V14.01,2013-02-12 09:01:00,
2013-02-12 03:06:00,24.3,21.3,30.16,WSW,257,0.0,0.0,88,0.00,,CLR,0.00,VWS V14.01,2013-02-12 09:06:00,
2013-02-12 03:12:00,24.2,21.2,30.16,WSW,257,0.0,0.0,88,0.00,,CLR,0.00,VWS V14.01,2013-02-12 09:12:00,
2013-02-12 03:17:00,24.2,21.2,30.16,WSW,257,0.0,0.0,88,0.00,,CLR,0.00,VWS V14.01,2013-02-12 09:17:00,
2013-02-12 03:22:00,24.1,21.3,30.15,WSW,257,0.0,0.0,89,0.00,,CLR,0.00,VWS V14.01,2013-02-12 09:22:00,
2013-02-12 03:27:00,24.2,21.4,30.15,WSW,257,1.0,1.0,89,0.00,,CLR,0.00,VWS V14.01,2013-02-12 09:27:00,
2013-02-12 03:32:00,24.3,21.5,30.14,WSW,257,0.0,0.0,89,0.00,,CLR,0.00,VWS V14.01,2013-02-12 09:32:00,
2013-02-12 03:37:00,24.1,21.1,30.14,WSW,257,0.0,0.0,88,0.00,,CLR,0.00,VWS V14.01,2013-02-12 09:37:00,
2013-02-12 03:42:00,24.2,21.4,30.14,WSW,257,0.0,1.0,89,0.00,,CLR,0.00,VWS V14.01,2013-02-12 09:42:00,
2013-02-12 03:47:00,24.2,21.4,30.14,WSW,257,0.0,1.0,89,0.00,,CLR,0.00,VWS V14.01,2013-02-12 09:47:00,
2013-02-12 03:52:00,24.2,21.2,30.13,WSW,257,0.0,1.0,88,0.00,,CLR,0.00,VWS V14.01,2013-02-12 09:52:00,
2013-02-12 03:57:00,24.1,21.3,30.13,WSW,257,2.0,2.0,89,0.00,,CLR,0.00,VWS V14.01,2013-02-12 09:57:00,
2013-02-12 04:02:00,24.1,21.3,30.14,WSW,257,2.0,3.0,89,0.00,,CLR,0.00,VWS V14.01,2013-02-12 10:02:00,
2013-02-12 04:07:00,23.9,21.1,30.14,WSW,257,2.0,3.0,89,0.00,,CLR,0.00,VWS V14.01,2013-02-12 10:07:00,
2013-02-12 04:12:00,23.9,21.1,30.14,WSW,251,2.0,2.0,89,0.00,,CLR,0.00,VWS V14.01,2013-02-12 10:12:00,
2013-02-12 04:17:00,24.0,21.2,30.14,WSW,240,1.0,2.0,89,0.00,,CLR,0.00,VWS V14.01,2013-02-12 10:17:00,
2013-02-12 04:22:00,23.8,20.8,30.15,WSW,240,1.0,2.0,88,0.00,,CLR,0.00,VWS V14.01,2013-02-12 10:22:00,
2013-02-12 04:27:00,23.3,20.3,30.15,WSW,239,4.0,4.0,88,0.00,,CLR,0.00,VWS V14.01,2013-02-12 10:27:00,
2013-02-12 04:32:00,23.4,20.6,30.15,SW,235,2.0,4.0,89,0.00,,CLR,0.00,VWS V14.01,2013-02-12 10:32:00,
2013-02-12 04:37:00,23.4,20.4,30.14,WSW,237,1.0,1.0,88,0.00,,CLR,0.00,VWS V14.01,2013-02-12 10:37:00,
2013-02-12 04:42:00,23.6,20.6,30.14,WSW,246,2.0,3.0,88,0.00,,CLR,0.00,VWS V14.01,2013-02-12 10:42:00,
2013-02-12 04:47:00,23.8,20.8,30.14,WSW,246,2.0,2.0,88,0.00,,CLR,0.00,VWS V14.01,2013-02-12 10:47:00,
2013-02-12 04:52:00,23.8,20.8,30.14,WSW,246,2.0,3.0,88,0.00,,CLR,0.00,VWS V14.01,2013-02-12 10:52:00,
2013-02-12 04:57:00,23.8,20.5,30.14,WSW,246,0.0,2.0,87,0.00,,CLR,0.00,VWS V14.01,2013-02-12 10:57:00,
2013-02-12 05:02:00,23.9,20.9,30.15,WSW,246,2.0,2.0,88,0.00,,CLR,0.00,VWS V14.01,2013-02-12 11:02:00,
2013-02-12 05:07:00,24.0,21.0,30.15,WSW,246,2.0,3.0,88,0.00,,CLR,0.00,VWS V14.01,2013-02-12 11:07:00,
2013-02-12 05:12:00,24.2,20.9,30.15,WSW,246,2.0,2.0,87,0.00,,CLR,0.00,VWS V14.01,2013-02-12 11:12:00,
2013-02-12 05:17:00,24.3,21.0,30.15,WSW,239,3.0,3.0,87,0.00,,CLR,0.00,VWS V14.01,2013-02-12 11:17:00,
2013-02-12 05:22:00,24.4,20.8,30.15,WSW,243,1.0,3.0,86,0.00,,CLR,0.00,VWS V14.01,2013-02-12 11:22:00,
2013-02-12 05:27:00,24.3,20.7,30.16,WSW,243,1.0,3.0,86,0.00,,CLR,0.00,VWS V14.01,2013-02-12 11:27:00,
2013-02-12 05:32:00,24.2,20.6,30.16,SW,236,1.0,3.0,86,0.00,,CLR,0.00,VWS V14.01,2013-02-12 11:32:00,
2013-02-12 05:37:00,24.0,20.4,30.15,SW,231,3.0,4.0,86,0.00,,CLR,0.00,VWS V14.01,2013-02-12 11:37:00,
2013-02-12 05:42:00,23.8,20.2,30.16,SW,231,1.0,3.0,86,0.00,,CLR,0.00,VWS V14.01,2013-02-12 11:42:00,
2013-02-12 05:47:00,23.9,20.6,30.15,WSW,241,2.0,3.0,87,0.00,,CLR,0.00,VWS V14.01,2013-02-12 11:47:00,
2013-02-12 05:52:00,23.9,20.6,30.15,SW,234,2.0,3.0,87,0.00,,CLR,0.00,VWS V14.01,2013-02-12 11:52:00,
2013-02-12 05:57:00,23.9,20.6,30.15,SW,234,1.0,3.0,87,0.00,,CLR,0.00,VWS V14.01,2013-02-12 11:57:00,
2013-02-12 06:02:00,24.0,20.7,30.15,WSW,242,3.0,3.0,87,0.00,,CLR,0.00,VWS V14.01,2013-02-12 12:02:00,
2013-02-12 06:07:00,23.9,20.6,30.15,SW,235,3.0,5.0,87,0.00,,CLR,0.00,VWS V14.01,2013-02-12 12:07:00,
2013-02-12 06:12:00,23.8,20.8,30.15,SW,235,2.0,4.0,88,0.00,,CLR,0.00,VWS V14.01,2013-02-12 12:12:00,
2013-02-12 06:17:00,23.8,20.8,30.14,SW,235,1.0,3.0,88,0.00,,CLR,0.00,VWS V14.01,2013-02-12 12:17:00,
2013-02-12 06:22:00,23.9,20.9,30.15,SW,235,2.0,3.0,88,0.00,,CLR,0.00,VWS V14.01,2013-02-12 12:22:00,
2013-02-12 06:27:00,23.8,20.8,30.15,SW,235,1.0,2.0,88,0.00,,CLR,0.00,VWS V14.01,2013-02-12 12:27:00,
2013-02-12 06:32:00,23.6,20.6,30.15,SW,235,2.0,2.0,88,0.00,,CLR,0.00,VWS V14.01,2013-02-12 12:32:00,
2013-02-12 06:38:00,23.5,20.5,30.15,SW,235,2.0,2.0,88,0.00,,CLR,0.00,VWS V14.01,2013-02-12 12:38:00,
2013-02-12 06:43:00,23.4,20.4,30.14,SW,235,2.0,3.0,88,0.00,,CLR,0.00,VWS V14.01,2013-02-12 12:43:00,
2013-02-12 06:48:00,23.3,20.3,30.14,WSW,237,2.0,2.0,88,0.00,,CLR,0.00,VWS V14.01,2013-02-12 12:48:00,
2013-02-12 06:53:00,23.4,20.6,30.14,WSW,237,0.0,2.0,89,0.00,,CLR,0.00,VWS V14.01,2013-02-12 12:53:00,
2013-02-12 06:58:00,23.4,20.4,30.14,WSW,237,0.0,1.0,88,0.00,,CLR,0.00,VWS V14.01,2013-02-12 12:58:00,
2013-02-12 07:03:00,23.4,20.6,30.13,WSW,237,2.0,2.0,89,0.00,,CLR,0.00,VWS V14.01,2013-02-12 13:03:00,
2013-02-12 07:08:00,23.8,21.0,30.13,WSW,237,0.0,1.0,89,0.00,,CLR,0.00,VWS V14.01,2013-02-12 13:08:00,
2013-02-12 07:13:00,23.9,21.1,30.13,WSW,237,1.0,2.0,89,0.00,,CLR,0.00,VWS V14.01,2013-02-12 13:13:00,
2013-02-12 07:18:00,24.0,21.0,30.13,WSW,237,2.0,2.0,88,0.00,,CLR,0.00,VWS V14.01,2013-02-12 13:18:00,
2013-02-12 07:23:00,23.9,20.9,30.13,WSW,237,0.0,0.0,88,0.00,,CLR,0.00,VWS V14.01,2013-02-12 13:23:00,
2013-02-12 07:28:00,23.8,20.8,30.12,WSW,237,0.0,0.0,88,0.00,,CLR,0.00,VWS V14.01,2013-02-12 13:28:00,
2013-02-12 07:33:00,23.8,20.8,30.12,WSW,237,0.0,0.0,88,0.00,,CLR,0.00,VWS V14.01,2013-02-12 13:33:00,
2013-02-12 07:38:00,23.7,20.7,30.12,WSW,237,0.0,1.0,88,0.00,,CLR,0.00,VWS V14.01,2013-02-12 13:38:00,
2013-02-12 07:43:00,23.8,21.0,30.12,WSW,237,1.0,1.0,89,0.00,,CLR,0.00,VWS V14.01,2013-02-12 13:43:00,
2013-02-12 07:48:00,23.8,21.0,30.12,WSW,237,2.0,2.0,89,0.00,,CLR,0.00,VWS V14.01,2013-02-12 13:48:00,
2013-02-12 07:53:00,23.8,21.0,30.12,SSW,210,2.0,3.0,89,0.00,,CLR,0.00,VWS V14.01,2013-02-12 13:53:00,
2013-02-12 07:58:00,23.8,20.8,30.12,SSW,210,0.0,0.0,88,0.00,,CLR,0.00,VWS V14.01,2013-02-12 13:58:00,
2013-02-12 08:03:00,23.8,21.0,30.12,SSW,210,2.0,2.0,89,0.00,,CLR,0.00,VWS V14.01,2013-02-12 14:03:00,
2013-02-12 08:08:00,24.0,21.2,30.12,SSW,200,4.0,4.0,89,0.00,,CLR,0.00,VWS V14.01,2013-02-12 14:08:00,
2013-02-12 08:13:00,24.2,21.4,30.13,SSW,205,5.0,6.0,89,0.00,,CLR,0.00,VWS V14.01,2013-02-12 14:13:00,
2013-02-12 08:18:00,24.1,21.3,30.13,SSW,194,4.0,4.0,89,0.00,,CLR,0.00,VWS V14.01,2013-02-12 14:18:00,
2013-02-12 08:23:00,23.8,21.0,30.13,SSW,196,4.0,6.0,89,0.00,,CLR,0.00,VWS V14.01,2013-02-12 14:23:00,
2013-02-12 08:28:00,24.0,21.5,30.12,SW,222,2.0,4.0,90,0.00,,CLR,0.00,VWS V14.01,2013-02-12 14:28:00,
2013-02-12 08:33:00,24.5,22.0,30.12,SW,230,2.0,3.0,90,0.00,,,0.00,VWS V14.01,2013-02-12 14:33:00,
2013-02-12 08:38:00,25.1,22.6,30.12,SSW,203,3.0,4.0,90,0.00,,,0.00,VWS V14.01,2013-02-12 14:38:00,
2013-02-12 08:43:00,25.6,22.8,30.12,SSW,197,5.0,6.0,89,0.00,,,0.00,VWS V14.01,2013-02-12 14:43:00,
2013-02-12 08:48:00,26.2,23.7,30.12,South,171,4.0,5.0,90,0.00,,,0.00,VWS V14.01,2013-02-12 14:48:00,
2013-02-12 08:53:00,26.8,24.0,30.12,SW,223,4.0,5.0,89,0.00,,,0.00,VWS V14.01,2013-02-12 14:53:00,
2013-02-12 08:58:00,27.3,24.5,30.12,WSW,241,4.0,5.0,89,0.00,,,0.00,VWS V14.01,2013-02-12 14:58:00,
2013-02-12 09:03:00,28.0,24.9,30.12,WSW,237,3.0,5.0,88,0.00,,,0.00,VWS V14.01,2013-02-12 15:03:00,
2013-02-12 09:08:00,28.9,25.5,30.12,SW,216,3.0,9.0,87,0.00,,,0.00,VWS V14.01,2013-02-12 15:08:00,
2013-02-12 09:13:00,29.7,26.0,30.12,South,185,6.0,6.0,86,0.00,,,0.00,VWS V14.01,2013-02-12 15:13:00,
2013-02-12 09:18:00,30.3,26.1,30.12,SW,218,6.0,8.0,84,0.00,,,0.00,VWS V14.01,2013-02-12 15:18:00,
2013-02-12 09:23:00,31.0,26.7,30.12,SSW,197,7.0,9.0,84,0.00,,,0.00,VWS V14.01,2013-02-12 15:23:00,
2013-02-12 09:28:00,31.6,27.3,30.12,South,186,7.0,9.0,84,0.00,,,0.00,VWS V14.01,2013-02-12 15:28:00,
2013-02-12 09:33:00,32.1,26.9,30.12,SSW,210,7.0,13.0,81,0.00,,,0.00,VWS V14.01,2013-02-12 15:33:00,
2013-02-12 09:38:00,32.3,27.4,30.12,SSW,195,7.0,9.0,82,0.00,,,0.00,VWS V14.01,2013-02-12 15:38:00,
2013-02-12 09:43:00,32.2,26.7,30.11,SW,214,8.0,9.0,80,0.00,,,0.00,VWS V14.01,2013-02-12 15:43:00,
2013-02-12 09:48:00,32.4,26.9,30.10,SSW,201,7.0,8.0,80,0.00,,,0.00,VWS V14.01,2013-02-12 15:48:00,
2013-02-12 09:53:00,32.8,27.0,30.10,SSW,209,4.0,7.0,79,0.00,,,0.00,VWS V14.01,2013-02-12 15:53:00,
2013-02-12 09:58:00,33.1,27.0,30.10,SSW,212,7.0,7.0,78,0.00,,,0.00,VWS V14.01,2013-02-12 15:58:00,
2013-02-12 10:03:00,33.7,27.3,30.10,SW,219,6.0,7.0,77,0.00,,,0.00,VWS V14.01,2013-02-12 16:03:00,
2013-02-12 10:08:00,34.0,26.9,30.09,South,189,6.0,9.0,75,0.00,,,0.00,VWS V14.01,2013-02-12 16:08:00,
2013-02-12 10:13:00,34.6,25.5,30.10,SW,220,6.0,10.0,69,0.00,,,0.00,VWS V14.01,2013-02-12 16:13:00,
2013-02-12 10:18:00,35.3,25.8,30.09,SSW,212,6.0,9.0,68,0.00,,,0.00,VWS V14.01,2013-02-12 16:18:00,
2013-02-12 10:23:00,35.9,25.7,30.09,SSW,206,6.0,9.0,66,0.00,,,0.00,VWS V14.01,2013-02-12 16:23:00,
2013-02-12 10:28:00,36.1,25.1,30.10,SW,233,7.0,10.0,64,0.00,,,0.00,VWS V14.01,2013-02-12 16:28:00,
2013-02-12 10:33:00,36.0,25.0,30.10,WSW,240,5.0,14.0,64,0.00,,FEW030,0.00,VWS V14.01,2013-02-12 16:33:00,
2013-02-12 10:38:00,36.2,25.6,30.10,WSW,245,6.0,9.0,65,0.00,,FEW030,0.00,VWS V14.01,2013-02-12 16:38:00,
2013-02-12 10:43:00,36.3,26.0,30.10,West,259,8.0,9.0,66,0.00,,FEW030,0.00,VWS V14.01,2013-02-12 16:43:00,
2013-02-12 10:49:00,36.5,26.2,30.10,SW,230,6.0,9.0,66,0.00,,FEW030,0.00,VWS V14.01,2013-02-12 16:49:00,
2013-02-12 10:54:00,36.4,26.5,30.10,WSW,250,8.0,8.0,67,0.00,,FEW030,0.00,VWS V14.01,2013-02-12 16:54:00,
2013-02-12 10:59:00,36.8,26.9,30.10,SW,216,7.0,9.0,67,0.00,,FEW030,0.00,VWS V14.01,2013-02-12 16:59:00,
2013-02-12 11:04:00,36.7,26.8,30.10,West,267,6.0,11.0,67,0.00,,FEW030,0.00,VWS V14.01,2013-02-12 17:04:00,
2013-02-12 11:09:00,36.9,27.3,30.10,SW,228,10.0,10.0,68,0.00,,FEW030,0.00,VWS V14.01,2013-02-12 17:09:00,
2013-02-12 11:14:00,37.1,27.2,30.11,SW,229,6.0,12.0,67,0.00,,FEW030,0.00,VWS V14.01,2013-02-12 17:14:00,
2013-02-12 11:19:00,37.3,27.4,30.11,WSW,250,7.0,13.0,67,0.00,,FEW030,0.00,VWS V14.01,2013-02-12 17:19:00,
2013-02-12 11:24:00,37.8,27.8,30.10,West,262,8.0,10.0,67,0.00,,FEW030,0.00,VWS V14.01,2013-02-12 17:24:00,
2013-02-12 11:29:00,38.0,28.0,30.10,SW,228,8.0,9.0,67,0.00,,FEW030,0.00,VWS V14.01,2013-02-12 17:29:00,
2013-02-12 11:34:00,38.5,28.5,30.10,SW,224,6.0,7.0,67,0.00,,FEW030,0.00,VWS V14.01,2013-02-12 17:34:00,
2013-02-12 11:39:00,39.1,28.3,30.10,SW,227,7.0,11.0,65,0.00,,FEW030,0.00,VWS V14.01,2013-02-12 17:39:00,
2013-02-12 11:44:00,39.2,27.7,30.10,SW,233,8.0,12.0,63,0.00,,FEW030,0.00,VWS V14.01,2013-02-12 17:44:00,
2013-02-12 11:49:00,39.5,28.0,30.09,SW,214,8.0,12.0,63,0.00,,FEW030,0.00,VWS V14.01,2013-02-12 17:49:00,
2013-02-12 11:54:00,39.7,27.8,30.09,WSW,253,3.0,10.0,62,0.00,,FEW030,0.00,VWS V14.01,2013-02-12 17:54:00,
2013-02-12 11:59:00,40.3,27.5,30.09,SW,229,4.0,10.0,60,0.00,,FEW030,0.00,VWS V14.01,2013-02-12 17:59:00,
2013-02-12 12:04:00,40.9,26.9,30.08,WSW,251,8.0,13.0,57,0.00,,FEW030,0.00,VWS V14.01,2013-02-12 18:04:00,
2013-02-12 12:09:00,41.3,27.2,30.08,SW,235,6.0,10.0,57,0.00,,FEW030,0.00,VWS V14.01,2013-02-12 18:09:00,
2013-02-12 12:14:00,41.3,27.2,30.08,SW,222,8.0,10.0,57,0.00,,FEW030,0.00,VWS V14.01,2013-02-12 18:14:00,
2013-02-12 12:19:00,41.7,26.7,30.08,WSW,249,7.0,12.0,55,0.00,,FEW030,0.00,VWS V14.01,2013-02-12 18:19:00,
2013-02-12 12:24:00,41.9,26.9,30.07,SW,218,8.0,8.0,55,0.00,,FEW030,0.00,VWS V14.01,2013-02-12 18:24:00,
2013-02-12 12:29:00,42.3,26.9,30.06,SW,233,6.0,12.0,54,0.00,,FEW030,0.00,VWS V14.01,2013-02-12 18:29:00,
2013-02-12 12:34:00,42.3,27.3,30.06,West,281,3.0,6.0,55,0.00,,FEW030,0.00,VWS V14.01,2013-02-12 18:34:00,
2013-02-12 12:39:00,42.8,27.8,30.05,SW,229,7.0,14.0,55,0.00,,FEW030,0.00,VWS V14.01,2013-02-12 18:39:00,
2013-02-12 12:44:00,43.2,27.7,30.05,WSW,250,8.0,8.0,54,0.00,,FEW030,0.00,VWS V14.01,2013-02-12 18:44:00,
2013-02-12 12:49:00,43.7,27.7,30.04,WSW,257,9.0,9.0,53,0.00,,FEW030,0.00,VWS V14.01,2013-02-12 18:49:00,
2013-02-12 12:54:00,44.1,27.1,30.04,WSW,256,10.0,10.0,51,0.00,,FEW030,0.00,VWS V14.01,2013-02-12 18:54:00,
2013-02-12 12:59:00,44.2,26.3,30.04,SW,227,9.0,13.0,49,0.00,,FEW030,0.00,VWS V14.01,2013-02-12 18:59:00,
2013-02-12 13:04:00,44.1,25.7,30.03,WSW,246,6.0,9.0,48,0.00,,FEW030,0.00,VWS V14.01,2013-02-12 19:04:00,
2013-02-12 13:09:00,44.2,25.3,30.03,WSW,246,7.0,12.0,47,0.00,,FEW030,0.00,VWS V14.01,2013-02-12 19:09:00,
2013-02-12 13:14:00,44.5,26.0,30.03,SW,223,8.0,11.0,48,0.00,,FEW030,0.00,VWS V14.01,2013-02-12 19:14:00,
2013-02-12 13:19:00,44.8,25.8,30.03,SW,220,8.0,13.0,47,0.00,,FEW030,0.00,VWS V14.01,2013-02-12 19:19:00,
2013-02-12 13:24:00,44.8,25.8,30.02,West,270,2.0,9.0,47,0.00,,FEW030,0.00,VWS V14.01,2013-02-12 19:24:00,
2013-02-12 13:29:00,45.5,25.4,30.02,SW,214,7.0,11.0,45,0.00,,FEW030,0.00,VWS V14.01,2013-02-12 19:29:00,
2013-02-12 13:34:00,45.6,25.0,30.02,WNW,290,8.0,11.0,44,0.00,,SCT030,0.00,VWS V14.01,2013-02-12 19:34:00,
2013-02-12 13:39:00,45.8,25.1,30.02,WSW,258,7.0,10.0,44,0.00,,SCT030,0.00,VWS V14.01,2013-02-12 19:39:00,
2013-02-12 13:44:00,45.5,25.4,30.01,WSW,245,11.0,14.0,45,0.00,,SCT030,0.00,VWS V14.01,2013-02-12 19:44:00,
2013-02-12 13:49:00,45.7,26.1,30.01,NW,306,5.0,11.0,46,0.00,,SCT030,0.00,VWS V14.01,2013-02-12 19:49:00,
2013-02-12 13:54:00,46.2,25.0,30.01,WNW,292,3.0,13.0,43,0.00,,SCT030,0.00,VWS V14.01,2013-02-12 19:54:00,
2013-02-12 13:59:00,46.1,24.9,30.01,WNW,286,5.0,16.0,43,0.00,,SCT030,0.00,VWS V14.01,2013-02-12 19:59:00,
2013-02-12 14:04:00,46.2,25.0,30.01,WNW,282,5.0,6.0,43,0.00,,SCT030,0.00,VWS V14.01,2013-02-12 20:04:00,
2013-02-12 14:09:00,46.4,25.1,30.01,WNW,293,8.0,11.0,43,0.00,,SCT030,0.00,VWS V14.01,2013-02-12 20:09:00,
2013-02-12 14:15:00,46.6,25.3,30.00,WSW,240,4.0,6.0,43,0.00,,SCT030,0.00,VWS V14.01,2013-02-12 20:15:00,
2013-02-12 14:20:00,46.6,24.2,30.00,WSW,252,3.0,11.0,41,0.00,,SCT030,0.00,VWS V14.01,2013-02-12 20:20:00,
2013-02-12 14:25:00,46.6,24.8,29.99,WSW,253,11.0,11.0,42,0.00,,SCT030,0.00,VWS V14.01,2013-02-12 20:25:00,
2013-02-12 14:30:00,46.8,24.9,29.99,SW,228,10.0,11.0,42,0.00,,SCT030,0.00,VWS V14.01,2013-02-12 20:30:00,
2013-02-12 14:35:00,46.7,24.8,29.99,WNW,289,4.0,7.0,42,0.00,,SCT250,0.00,VWS V14.01,2013-02-12 20:35:00,
2013-02-12 14:40:00,47.0,25.1,29.99,SW,231,7.0,7.0,42,0.00,,SCT250,0.00,VWS V14.01,2013-02-12 20:40:00,
2013-02-12 14:45:00,46.8,24.9,29.98,WSW,239,9.0,12.0,42,0.00,,SCT250,0.00,VWS V14.01,2013-02-12 20:45:00,
2013-02-12 14:50:00,46.9,25.0,29.98,WNW,283,4.0,11.0,42,0.00,,SCT250,0.00,VWS V14.01,2013-02-12 20:50:00,
2013-02-12 14:55:00,46.9,25.0,29.98,West,260,7.0,11.0,42,0.00,,SCT250,0.00,VWS V14.01,2013-02-12 20:55:00,
2013-02-12 15:00:00,46.9,25.0,29.98,WSW,247,11.0,11.0,42,0.00,,SCT250,0.00,VWS V14.01,2013-02-12 21:00:00,
2013-02-12 15:05:00,47.0,25.1,29.98,SSW,212,6.0,9.0,42,0.00,,SCT250,0.00,VWS V14.01,2013-02-12 21:05:00,
2013-02-12 15:10:00,46.8,24.4,29.98,WNW,282,2.0,13.0,41,0.00,,SCT250,0.00,VWS V14.01,2013-02-12 21:10:00,
2013-02-12 15:15:00,46.9,25.0,29.97,WSW,246,10.0,11.0,42,0.00,,SCT250,0.00,VWS V14.01,2013-02-12 21:15:00,
2013-02-12 15:20:00,47.0,25.1,29.97,WSW,243,5.0,9.0,42,0.00,,SCT250,0.00,VWS V14.01,2013-02-12 21:20:00,
2013-02-12 15:25:00,47.3,24.2,29.97,WNW,289,6.0,9.0,40,0.00,,SCT250,0.00,VWS V14.01,2013-02-12 21:25:00,
2013-02-12 15:30:00,47.4,24.3,29.97,SW,231,8.0,12.0,40,0.00,,SCT250,0.00,VWS V14.01,2013-02-12 21:30:00,
2013-02-12 15:35:00,47.2,24.7,29.97,SW,236,12.0,12.0,41,0.00,,SCT250,0.00,VWS V14.01,2013-02-12 21:35:00,
2013-02-12 15:40:00,47.3,24.8,29.96,SW,227,6.0,9.0,41,0.00,,SCT250,0.00,VWS V14.01,2013-02-12 21:40:00,
2013-02-12 15:45:00,47.4,24.3,29.96,SW,226,6.0,12.0,40,0.00,,SCT250,0.00,VWS V14.01,2013-02-12 21:45:00,
2013-02-12 15:50:00,47.5,25.0,29.96,SW,231,5.0,11.0,41,0.00,,SCT250,0.00,VWS V14.01,2013-02-12 21:50:00,
2013-02-12 15:55:00,47.8,24.1,29.96,WSW,256,5.0,11.0,39,0.00,,SCT250,0.00,VWS V14.01,2013-02-12 21:55:00,
2013-02-12 16:00:00,47.8,24.1,29.96,West,280,8.0,12.0,39,0.00,,SCT250,0.00,VWS V14.01,2013-02-12 22:00:00,
2013-02-12 16:12:00,47.7,23.4,29.95,WSW,249,6.0,9.0,38,0.00,,SCT250,0.00,VWS V14.01,2013-02-12 22:12:00,
2013-02-12 16:17:00,47.7,23.4,29.95,WSW,246,5.0,11.0,38,0.00,,SCT250,0.00,VWS V14.01,2013-02-12 22:17:00,
2013-02-12 16:22:00,47.7,24.0,29.95,West,264,6.0,12.0,39,0.00,,SCT250,0.00,VWS V14.01,2013-02-12 22:22:00,
2013-02-12 16:27:00,47.8,23.4,29.95,SW,225,5.0,9.0,38,0.00,,SCT250,0.00,VWS V14.01,2013-02-12 22:27:00,
2013-02-12 16:32:00,47.9,23.5,29.95,West,273,1.0,5.0,38,0.00,,SCT250,0.00,VWS V14.01,2013-02-12 22:32:00,
2013-02-12 16:37:00,47.8,23.4,29.95,WSW,245,7.0,11.0,38,0.00,,SCT250,0.00,VWS V14.01,2013-02-12 22:37:00,
2013-02-12 16:42:00,47.6,23.3,29.95,SW,235,7.0,11.0,38,0.00,,SCT250,0.00,VWS V14.01,2013-02-12 22:42:00,
2013-02-12 16:47:00,47.4,23.7,29.95,West,266,3.0,6.0,39,0.00,,SCT250,0.00,VWS V14.01,2013-02-12 22:47:00,
2013-02-12 16:52:00,47.3,24.8,29.95,WSW,255,7.0,7.0,41,0.00,,SCT250,0.00,VWS V14.01,2013-02-12 22:52:00,
2013-02-12 16:57:00,47.2,24.1,29.95,WSW,239,6.0,6.0,40,0.00,,SCT250,0.00,VWS V14.01,2013-02-12 22:57:00,
2013-02-12 17:02:00,47.0,24.0,29.95,WNW,299,2.0,5.0,40,0.00,,SCT250,0.00,VWS V14.01,2013-02-12 23:02:00,
2013-02-12 17:07:00,47.0,24.5,29.95,West,270,3.0,3.0,41,0.00,,SCT250,0.00,VWS V14.01,2013-02-12 23:07:00,
2013-02-12 17:12:00,46.7,24.3,29.95,WNW,290,1.0,3.0,41,0.00,,SCT250,0.00,VWS V14.01,2013-02-12 23:12:00,
2013-02-12 17:17:00,46.5,24.1,29.95,West,264,1.0,4.0,41,0.00,,SCT250,0.00,VWS V14.01,2013-02-12 23:17:00,
2013-02-12 17:22:00,46.3,23.9,29.95,West,260,4.0,4.0,41,0.00,,SCT250,0.00,VWS V14.01,2013-02-12 23:22:00,
2013-02-12 17:27:00,46.0,23.6,29.95,WNW,288,0.0,2.0,41,0.00,,SCT250,0.00,VWS V14.01,2013-02-12 23:27:00,
2013-02-12 17:32:00,45.7,23.4,29.95,WNW,293,1.0,3.0,41,0.00,,SCT250,0.00,VWS V14.01,2013-02-12 23:32:00,
2013-02-12 17:37:00,45.4,23.7,29.95,WNW,293,1.0,3.0,42,0.00,,SCT250,0.00,VWS V14.01,2013-02-12 23:37:00,
2013-02-12 17:42:00,45.1,23.4,29.95,WNW,293,0.0,2.0,42,0.00,,SCT250,0.00,VWS V14.01,2013-02-12 23:42:00,
2013-02-12 17:47:00,44.9,23.2,29.95,WNW,299,2.0,2.0,42,0.00,,SCT250,0.00,VWS V14.01,2013-02-12 23:47:00,
2013-02-12 17:52:00,44.6,22.9,29.95,WNW,299,1.0,2.0,42,0.00,,SCT250,0.00,VWS V14.01,2013-02-12 23:52:00,
2013-02-12 17:57:00,44.4,23.3,29.95,WNW,299,0.0,1.0,43,0.00,,SCT250,0.00,VWS V14.01,2013-02-12 23:57:00,
2013-02-12 18:02:00,44.2,23.1,29.95,WNW,299,0.0,2.0,43,0.00,,SCT250,0.00,VWS V14.01,2013-02-13 00:02:00,
2013-02-12 18:07:00,43.7,23.2,29.94,WNW,299,0.0,0.0,44,0.00,,SCT250,0.00,VWS V14.01,2013-02-13 00:07:00,
2013-02-12 18:12:00,43.0,23.1,29.94,WNW,299,1.0,1.0,45,0.00,,SCT250,0.00,VWS V14.01,2013-02-13 00:12:00,
2013-02-12 18:17:00,42.3,23.0,29.94,West,266,3.0,3.0,46,0.00,,SCT250,0.00,VWS V14.01,2013-02-13 00:17:00,
2013-02-12 18:23:00,42.2,23.4,29.94,West,264,1.0,2.0,47,0.00,,SCT250,0.00,VWS V14.01,2013-02-13 00:23:00,
2013-02-12 18:28:00,42.0,23.2,29.94,West,264,0.0,0.0,47,0.00,,SCT250,0.00,VWS V14.01,2013-02-13 00:28:00,
2013-02-12 18:33:00,41.8,23.1,29.95,West,264,0.0,0.0,47,0.00,,SCT250,0.00,VWS V14.01,2013-02-13 00:33:00,
2013-02-12 18:38:00,41.6,23.4,29.95,West,264,1.0,2.0,48,0.00,,SCT250,0.00,VWS V14.01,2013-02-13 00:38:00,
2013-02-12 18:43:00,41.4,23.7,29.94,West,264,2.0,2.0,49,0.00,,SCT250,0.00,VWS V14.01,2013-02-13 00:43:00,
2013-02-12 18:48:00,41.3,24.1,29.94,WSW,251,0.0,3.0,50,0.00,,SCT250,0.00,VWS V14.01,2013-02-13 00:48:00,
2013-02-12 18:53:00,41.1,23.9,29.94,WSW,251,0.0,2.0,50,0.00,,SCT250,0.00,VWS V14.01,2013-02-13 00:53:00,
2013-02-12 18:58:00,40.8,23.6,29.94,WSW,251,1.0,2.0,50,0.00,,SCT250,0.00,VWS V14.01,2013-02-13 00:58:00,
2013-02-12 19:03:00,40.7,23.5,29.94,WSW,251,0.0,3.0,50,0.00,,SCT250,0.00,VWS V14.01,2013-02-13 01:03:00,
2013-02-12 19:08:00,40.7,23.5,29.94,WSW,249,2.0,4.0,50,0.00,,SCT250,0.00,VWS V14.01,2013-02-13 01:08:00,
2013-02-12 19:13:00,40.7,23.5,29.94,WSW,253,2.0,3.0,50,0.00,,SCT250,0.00,VWS V14.01,2013-02-13 01:13:00,
2013-02-12 19:18:00,40.6,23.4,29.94,WSW,247,0.0,3.0,50,0.00,,SCT250,0.00,VWS V14.01,2013-02-13 01:18:00,
2013-02-12 19:23:00,40.5,23.3,29.94,WSW,253,0.0,2.0,50,0.00,,SCT250,0.00,VWS V14.01,2013-02-13 01:23:00,
2013-02-12 19:28:00,40.4,23.2,29.93,WSW,253,0.0,1.0,50,0.00,,SCT250,0.00,VWS V14.01,2013-02-13 01:28:00,
2013-02-12 19:33:00,40.4,23.2,29.94,WSW,253,1.0,2.0,50,0.00,,FEW250,0.00,VWS V14.01,2013-02-13 01:33:00,
2013-02-12 19:38:00,40.3,23.1,29.94,WSW,253,0.0,2.0,50,0.00,,FEW250,0.00,VWS V14.01,2013-02-13 01:38:00,
2013-02-12 19:43:00,40.3,23.1,29.94,WSW,253,1.0,2.0,50,0.00,,FEW250,0.00,VWS V14.01,2013-02-13 01:43:00,
2013-02-12 19:48:00,40.2,23.5,29.93,WSW,254,3.0,4.0,51,0.00,,FEW250,0.00,VWS V14.01,2013-02-13 01:48:00,
2013-02-12 19:53:00,40.0,23.4,29.94,WSW,251,3.0,3.0,51,0.00,,FEW250,0.00,VWS V14.01,2013-02-13 01:53:00,
2013-02-12 19:58:00,40.0,23.8,29.94,WSW,254,3.0,5.0,52,0.00,,FEW250,0.00,VWS V14.01,2013-02-13 01:58:00,
2013-02-12 20:03:00,39.8,23.6,29.93,WSW,251,1.0,2.0,52,0.00,,FEW250,0.00,VWS V14.01,2013-02-13 02:03:00,
2013-02-12 20:08:00,39.6,23.4,29.93,WSW,251,2.0,2.0,52,0.00,,FEW250,0.00,VWS V14.01,2013-02-13 02:08:00,
2013-02-12 20:13:00,39.3,23.6,29.93,WSW,251,0.0,0.0,53,0.00,,FEW250,0.00,VWS V14.01,2013-02-13 02:13:00,
2013-02-12 20:18:00,39.4,23.2,29.93,WSW,251,2.0,3.0,52,0.00,,FEW250,0.00,VWS V14.01,2013-02-13 02:18:00,
2013-02-12 20:23:00,39.4,23.2,29.93,WNW,293,1.0,3.0,52,0.00,,FEW250,0.00,VWS V14.01,2013-02-13 02:23:00,
2013-02-12 20:29:00,39.4,23.2,29.93,WNW,283,1.0,2.0,52,0.00,,FEW250,0.00,VWS V14.01,2013-02-13 02:29:00,
2013-02-12 20:34:00,39.2,23.1,29.93,WNW,283,0.0,1.0,52,0.00,,FEW250,0.00,VWS V14.01,2013-02-13 02:34:00,
2013-02-12 20:39:00,39.0,22.9,29.93,WNW,283,1.0,1.0,52,0.00,,FEW250,0.00,VWS V14.01,2013-02-13 02:39:00,
2013-02-12 20:44:00,39.0,22.9,29.93,West,262,1.0,4.0,52,0.00,,FEW250,0.00,VWS V14.01,2013-02-13 02:44:00,
2013-02-12 20:49:00,39.4,22.3,29.93,WNW,299,2.0,5.0,50,0.00,,FEW250,0.00,VWS V14.01,2013-02-13 02:49:00,
2013-02-12 20:54:00,39.7,22.1,29.93,WNW,291,3.0,4.0,49,0.00,,FEW250,0.00,VWS V14.01,2013-02-13 02:54:00,
2013-02-12 20:59:00,39.7,22.6,29.93,WNW,301,1.0,3.0,50,0.00,,FEW250,0.00,VWS V14.01,2013-02-13 02:59:00,
2013-02-12 21:04:00,39.5,21.9,29.93,WNW,289,3.0,4.0,49,0.00,,FEW250,0.00,VWS V14.01,2013-02-13 03:04:00,
2013-02-12 21:09:00,39.2,22.1,29.93,WNW,292,3.0,4.0,50,0.00,,FEW250,0.00,VWS V14.01,2013-02-13 03:09:00,
2013-02-12 21:14:00,38.9,21.9,29.93,WNW,289,2.0,5.0,50,0.00,,FEW250,0.00,VWS V14.01,2013-02-13 03:14:00,
2013-02-12 21:19:00,38.7,21.7,29.93,WNW,291,6.0,6.0,50,0.00,,FEW250,0.00,VWS V14.01,2013-02-13 03:19:00,
2013-02-12 21:24:00,38.5,21.5,29.93,WNW,284,3.0,6.0,50,0.00,,FEW250,0.00,VWS V14.01,2013-02-13 03:24:00,
2013-02-12 21:29:00,38.2,21.7,29.93,WNW,291,4.0,5.0,51,0.00,,FEW250,0.00,VWS V14.01,2013-02-13 03:29:00,
2013-02-12 21:34:00,37.9,21.4,29.93,West,279,4.0,6.0,51,0.00,,CLR,0.00,VWS V14.01,2013-02-13 03:34:00,
2013-02-12 21:39:00,37.6,21.6,29.93,West,280,3.0,4.0,52,0.00,,CLR,0.00,VWS V14.01,2013-02-13 03:39:00,
2013-02-12 21:44:00,37.5,21.5,29.93,West,269,3.0,5.0,52,0.00,,CLR,0.00,VWS V14.01,2013-02-13 03:44:00,
2013-02-12 21:49:00,37.3,21.8,29.93,West,279,4.0,5.0,53,0.00,,CLR,0.00,VWS V14.01,2013-02-13 03:49:00,
2013-02-12 21:54:00,37.0,21.9,29.94,West,276,3.0,5.0,54,0.00,,CLR,0.00,VWS V14.01,2013-02-13 03:54:00,
2013-02-12 21:59:00,36.8,21.7,29.94,WNW,285,4.0,6.0,54,0.00,,CLR,0.00,VWS V14.01,2013-02-13 03:59:00,
2013-02-12 22:04:00,36.6,22.0,29.94,WNW,283,4.0,4.0,55,0.00,,CLR,0.00,VWS V14.01,2013-02-13 04:04:00,
2013-02-12 22:09:00,36.5,21.9,29.94,WNW,285,4.0,5.0,55,0.00,,CLR,0.00,VWS V14.01,2013-02-13 04:09:00,
2013-02-12 22:14:00,36.4,21.8,29.94,NW,312,2.0,6.0,55,0.00,,CLR,0.00,VWS V14.01,2013-02-13 04:14:00,
2013-02-12 22:19:00,36.3,21.7,29.94,WNW,292,3.0,6.0,55,0.00,,CLR,0.00,VWS V14.01,2013-02-13 04:19:00,
2013-02-12 22:24:00,36.2,22.0,29.94,WNW,285,3.0,5.0,56,0.00,,CLR,0.00,VWS V14.01,2013-02-13 04:24:00,
2013-02-12 22:29:00,35.9,22.2,29.94,NW,314,4.0,6.0,57,0.00,,CLR,0.00,VWS V14.01,2013-02-13 04:29:00,
2013-02-12 22:34:00,35.9,22.6,29.94,WNW,295,2.0,3.0,58,0.00,,CLR,0.00,VWS V14.01,2013-02-13 04:34:00,
2013-02-12 22:39:00,35.7,22.8,29.94,WNW,296,2.0,4.0,59,0.00,,CLR,0.00,VWS V14.01,2013-02-13 04:39:00,
2013-02-12 22:44:00,35.7,22.8,29.94,WNW,297,4.0,6.0,59,0.00,,CLR,0.00,VWS V14.01,2013-02-13 04:44:00,
2013-02-12 22:49:00,35.6,22.7,29.94,WNW,302,2.0,4.0,59,0.00,,CLR,0.00,VWS V14.01,2013-02-13 04:49:00,
2013-02-12 22:54:00,35.4,22.9,29.94,NW,306,2.0,4.0,60,0.00,,CLR,0.00,VWS V14.01,2013-02-13 04:54:00,
2013-02-12 22:59:00,35.1,23.0,29.94,WNW,295,2.0,4.0,61,0.00,,CLR,0.00,VWS V14.01,2013-02-13 04:59:00,
2013-02-12 23:00:00,35.1,23.0,29.94,WNW,295,2.0,4.0,61,0.00,,CLR,0.00,VWS V14.01,2013-02-13 05:00:00,
2013-02-12 23:05:00,34.8,23.1,29.94,WNW,299,3.0,4.0,62,0.00,,CLR,0.00,VWS V14.01,2013-02-13 05:05:00,
2013-02-12 23:10:00,34.7,23.0,29.94,WNW,300,3.0,4.0,62,0.00,,CLR,0.00,VWS V14.01,2013-02-13 05:10:00,
2013-02-12 23:15:00,34.6,22.9,29.94,WNW,293,1.0,3.0,62,0.00,,CLR,0.00,VWS V14.01,2013-02-13 05:15:00,
2013-02-12 23:20:00,34.4,22.7,29.94,WNW,293,1.0,3.0,62,0.00,,CLR,0.00,VWS V14.01,2013-02-13 05:20:00,
2013-02-12 23:25:00,34.2,22.9,29.94,WNW,293,4.0,4.0,63,0.00,,CLR,0.00,VWS V14.01,2013-02-13 05:25:00,
2013-02-12 23:30:00,34.2,22.9,29.94,WNW,298,2.0,3.0,63,0.00,,CLR,0.00,VWS V14.01,2013-02-13 05:30:00,
2013-02-12 23:35:00,34.1,22.8,29.94,WNW,291,3.0,3.0,63,0.00,,CLR,0.00,VWS V14.01,2013-02-13 05:35:00,
2013-02-12 23:40:00,34.2,22.9,29.94,WNW,297,2.0,2.0,63,0.00,,CLR,0.00,VWS V14.01,2013-02-13 05:40:00,
2013-02-12 23:45:00,34.1,22.8,29.94,WNW,295,2.0,3.0,63,0.00,,CLR,0.00,VWS V14.01,2013-02-13 05:45:00,
2013-02-12 23:50:00,34.1,22.8,29.94,WNW,295,3.0,3.0,63,0.00,,CLR,0.00,VWS V14.01,2013-02-13 05:50:00,
2013-02-12 23:55:00,34.1,22.8,29.94,WNW,297,1.0,2.0,63,0.00,,CLR,0.00,VWS V14.01,2013-02-13 05:55:00,